Time;durP1;ratioP1;P1;durP2;ratioP2;P2;SDS_P1;SDS_P2;PMS_P1;PMS_P2;Temp;Humidity;BMP_temperature;BMP_pressure;BME280_temperature;BME280_humidity;BME280_pressure;Samples;Min_cycle;Max_cycle;Signal;HPM_P1;HPM_P2
2023/03/16 00:00:42;;;;;;;3.90;2.00;;;4.20;99.90;;;;;;6161316;23;20021;-80
2023/03/16 00:03:09;;;;;;;6.63;2.38;;;4.20;99.90;;;;;;6136819;23;21174;-79
2023/03/16 00:05:35;;;;;;;5.95;2.40;;;4.20;99.90;;;;;;6137366;23;20009;-76
2023/03/16 00:08:01;;;;;;;5.40;2.70;;;4.20;99.90;;;;;;6135190;23;20073;-77
2023/03/16 00:10:27;;;;;;;7.47;2.60;;;4.20;99.90;;;;;;6136944;23;20021;-78
2023/03/16 00:12:53;;;;;;;5.82;2.90;;;4.20;99.90;;;;;;6136342;23;20228;-77
2023/03/16 00:15:20;;;;;;;7.13;2.20;;;4.20;99.90;;;;;;6162172;23;20014;-77
2023/03/16 00:17:48;;;;;;;6.13;2.65;;;4.20;99.90;;;;;;6135503;23;20017;-78
2023/03/16 00:20:16;;;;;;;10.90;2.70;;;4.10;99.90;;;;;;6136517;23;20045;-77
2023/03/16 00:22:42;;;;;;;5.38;2.28;;;4.10;99.90;;;;;;6161145;23;20014;-78
2023/03/16 00:25:10;;;;;;;6.10;2.47;;;4.10;99.90;;;;;;6161609;23;20201;-75
2023/03/16 00:27:36;;;;;;;5.22;2.42;;;4.10;99.90;;;;;;6136685;23;20040;-79
2023/03/16 00:30:02;;;;;;;4.60;3.00;;;4.10;99.90;;;;;;6136485;23;20300;-76
2023/03/16 00:32:33;;;;;;;4.70;2.13;;;4.10;99.90;;;;;;6162701;23;20014;-77
2023/03/16 00:35:00;;;;;;;7.47;2.53;;;4.00;99.90;;;;;;6114352;23;20197;-79
2023/03/16 00:37:27;;;;;;;5.15;2.33;;;4.10;99.90;;;;;;6136595;23;20347;-77
2023/03/16 00:39:56;;;;;;;4.55;2.20;;;4.10;99.90;;;;;;6133997;23;20009;-78
2023/03/16 00:42:28;;;;;;;5.88;2.00;;;4.10;99.90;;;;;;6112108;23;20045;-79
2023/03/16 00:44:56;;;;;;;4.03;2.30;;;4.10;99.90;;;;;;6136027;23;20025;-80
2023/03/16 00:47:23;;;;;;;3.60;2.00;;;4.10;99.90;;;;;;6136097;23;20206;-77
2023/03/16 00:49:49;;;;;;;3.83;1.85;;;5.20;99.90;;;;;;6136858;23;20014;-79
2023/03/16 00:52:15;;;;;;;3.28;2.22;;;4.10;99.90;;;;;;6113141;23;20017;-78
2023/03/16 00:54:42;;;;;;;6.28;2.90;;;4.10;99.90;;;;;;6137555;23;20251;-78
2023/03/16 00:57:10;;;;;;;5.55;2.42;;;4.10;99.90;;;;;;6112224;23;20073;-78
2023/03/16 00:59:36;;;;;;;6.82;2.50;;;4.10;99.90;;;;;;6111898;23;20192;-78
2023/03/16 01:02:04;;;;;;;5.28;2.00;;;4.00;99.90;;;;;;6112139;23;20017;-78
2023/03/16 01:04:31;;;;;;;4.93;2.30;;;4.10;99.90;;;;;;6186396;23;20013;-77
2023/03/16 01:06:57;;;;;;;3.28;2.03;;;4.10;99.90;;;;;;6136204;23;20025;-76
2023/03/16 01:09:22;;;;;;;6.22;2.28;;;4.20;99.90;;;;;;6135745;23;20286;-75
2023/03/16 01:11:52;;;;;;;6.03;2.58;;;4.10;99.90;;;;;;6135161;23;20229;-78
2023/03/16 01:14:18;;;;;;;3.95;2.13;;;4.20;99.90;;;;;;6185435;23;20207;-78
2023/03/16 01:16:44;;;;;;;8.63;2.70;;;4.20;99.90;;;;;;6134839;23;20087;-77
2023/03/16 01:19:11;;;;;;;5.13;2.60;;;4.30;99.90;;;;;;6158842;23;20016;-76
2023/03/16 01:21:38;;;;;;;5.47;2.33;;;4.10;99.90;;;;;;6160505;23;20021;-78
2023/03/16 01:24:04;;;;;;;5.13;2.45;;;4.10;99.90;;;;;;6135311;23;20025;-76
2023/03/16 01:26:30;;;;;;;6.13;2.10;;;4.10;99.90;;;;;;6136680;23;20039;-76
2023/03/16 01:28:55;;;;;;;6.60;3.00;;;4.10;99.90;;;;;;6159828;23;20044;-76
2023/03/16 01:31:28;;;;;;;4.13;2.72;;;4.00;99.90;;;;;;6136442;23;20017;-77
2023/03/16 01:33:54;;;;;;;6.18;2.45;;;2.90;99.90;;;;;;6111240;23;20017;-76
2023/03/16 01:36:20;;;;;;;7.13;2.70;;;4.10;99.90;;;;;;6161329;23;20021;-76
2023/03/16 01:38:46;;;;;;;4.22;2.50;;;4.00;99.90;;;;;;6185453;23;20017;-78
2023/03/16 01:41:13;;;;;;;5.82;2.90;;;4.60;99.90;;;;;;6135092;23;20017;-77
2023/03/16 01:43:40;;;;;;;6.25;2.80;;;4.00;99.90;;;;;;6111817;23;20212;-78
2023/03/16 01:46:05;;;;;;;4.35;2.65;;;4.00;99.90;;;;;;6135400;23;20244;-77
2023/03/16 01:48:41;;;;;;;4.22;2.67;;;3.90;99.90;;;;;;6137264;23;20296;-79
2023/03/16 01:51:32;;;;;;;7.90;2.67;;;3.90;99.90;;;;;;6159609;23;20017;-77
2023/03/16 01:54:06;;;;;;;6.10;2.50;;;3.80;99.90;;;;;;6159238;23;20019;-76
2023/03/16 01:56:50;;;;;;;5.65;3.00;;;3.80;99.90;;;;;;6111830;23;20077;-77
2023/03/16 01:59:20;;;;;;;5.70;2.85;;;3.70;99.90;;;;;;6111983;23;20009;-79
2023/03/16 02:01:47;;;;;;;4.53;2.67;;;3.70;99.90;;;;;;6135598;23;20087;-76
2023/03/16 02:04:17;;;;;;;4.35;2.80;;;3.20;99.90;;;;;;6086795;23;20013;-78
2023/03/16 02:06:44;;;;;;;6.60;3.25;;;3.70;99.90;;;;;;6136052;23;20013;-77
2023/03/16 02:09:10;;;;;;;8.85;3.13;;;3.70;99.90;;;;;;6185241;23;20037;-78
2023/03/16 02:11:37;;;;;;;7.20;2.90;;;3.70;99.90;;;;;;6161768;23;20014;-79
2023/03/16 02:14:08;;;;;;;4.72;2.65;;;3.70;99.90;;;;;;6135491;23;20029;-78
2023/03/16 02:16:34;;;;;;;7.57;3.15;;;3.70;99.90;;;;;;6112435;23;20036;-79
2023/03/16 02:19:00;;;;;;;5.88;2.75;;;3.70;99.90;;;;;;6160312;23;20009;-81
2023/03/16 02:21:41;;;;;;;4.80;2.88;;;3.70;99.90;;;;;;6111211;23;20024;-78
2023/03/16 02:24:07;;;;;;;6.45;3.00;;;3.60;99.90;;;;;;6135138;23;20191;-77
2023/03/16 02:26:43;;;;;;;5.10;2.85;;;3.70;99.90;;;;;;6111554;23;20040;-76
2023/03/16 02:29:40;;;;;;;6.60;3.25;;;4.20;99.90;;;;;;6160508;23;20785;-77
2023/03/16 02:32:07;;;;;;;4.95;3.10;;;3.70;99.90;;;;;;6135362;23;20014;-75
2023/03/16 02:34:34;;;;;;;3.33;2.63;;;3.60;99.90;;;;;;6136819;23;20025;-76
2023/03/16 02:37:00;;;;;;;6.20;3.33;;;3.70;99.90;;;;;;6135850;23;20013;-77
2023/03/16 02:39:26;;;;;;;6.10;3.47;;;3.70;99.90;;;;;;6136861;23;20052;-78
2023/03/16 02:41:52;;;;;;;6.07;3.67;;;3.70;99.90;;;;;;6161047;23;20295;-77
2023/03/16 02:44:25;;;;;;;6.93;3.85;;;3.80;99.90;;;;;;6161393;23;20017;-78
2023/03/16 02:46:54;;;;;;;7.05;3.15;;;3.60;99.90;;;;;;6112337;23;20069;-78
2023/03/16 02:49:28;;;;;;;9.95;4.05;;;3.70;99.90;;;;;;6112431;23;20071;-78
2023/03/16 02:51:56;;;;;;;9.07;3.47;;;3.70;99.90;;;;;;6135667;23;20334;-79
2023/03/16 02:54:22;;;;;;;7.80;3.40;;;3.70;99.90;;;;;;6161572;23;20041;-78
2023/03/16 02:56:47;;;;;;;9.30;3.95;;;3.70;99.90;;;;;;6162293;23;20028;-76
2023/03/16 02:59:13;;;;;;;5.72;3.28;;;3.70;99.90;;;;;;6137309;23;20052;-80
2023/03/16 03:01:39;;;;;;;6.43;4.05;;;3.70;99.90;;;;;;6136530;23;20296;-78
2023/03/16 03:04:05;;;;;;;9.82;3.63;;;3.80;99.90;;;;;;6160527;23;20024;-80
2023/03/16 03:06:31;;;;;;;6.38;3.60;;;3.80;99.90;;;;;;6112024;23;20020;-78
2023/03/16 03:08:58;;;;;;;3.90;3.15;;;3.80;99.90;;;;;;6112421;23;20013;-76
2023/03/16 03:11:23;;;;;;;3.97;2.63;;;3.90;99.90;;;;;;6162802;23;20046;-78
2023/03/16 03:13:49;;;;;;;6.50;3.42;;;3.80;99.90;;;;;;6139021;23;20231;-79
2023/03/16 03:16:16;;;;;;;7.30;3.50;;;3.80;99.90;;;;;;6162590;23;20021;-77
2023/03/16 03:18:42;;;;;;;6.50;3.63;;;3.90;99.90;;;;;;6138249;23;20032;-78
2023/03/16 03:21:10;;;;;;;6.10;3.90;;;3.80;99.90;;;;;;6114294;23;20044;-76
2023/03/16 03:23:36;;;;;;;9.70;3.92;;;4.00;99.90;;;;;;6137328;23;20041;-76
2023/03/16 03:26:03;;;;;;;9.10;3.92;;;3.90;99.90;;;;;;6162056;23;20025;-76
2023/03/16 03:28:29;;;;;;;5.57;3.20;;;3.90;99.90;;;;;;6162781;23;20018;-77
2023/03/16 03:30:55;;;;;;;6.70;2.63;;;3.80;99.90;;;;;;6138191;23;20192;-76
2023/03/16 03:33:23;;;;;;;6.28;3.90;;;3.80;99.90;;;;;;6187800;23;20010;-76
2023/03/16 03:35:55;;;;;;;7.35;3.17;;;3.80;99.90;;;;;;6162015;23;20216;-76
2023/03/16 03:38:20;;;;;;;6.65;2.38;;;3.80;99.90;;;;;;6113617;23;20014;-76
2023/03/16 03:40:51;;;;;;;8.05;3.03;;;3.90;99.90;;;;;;6162988;23;20203;-78
2023/03/16 03:43:17;;;;;;;5.55;3.65;;;3.90;99.90;;;;;;6113165;23;20067;-76
2023/03/16 03:45:43;;;;;;;5.47;3.30;;;3.90;99.90;;;;;;6136483;23;20013;-76
2023/03/16 03:48:09;;;;;;;9.30;3.80;;;4.30;99.90;;;;;;6135771;23;20092;-77
2023/03/16 03:50:37;;;;;;;7.72;3.85;;;4.00;99.90;;;;;;6111420;23;20017;-76
2023/03/16 03:53:03;;;;;;;8.63;4.13;;;4.10;99.90;;;;;;6159260;23;20041;-77
2023/03/16 03:55:29;;;;;;;5.55;3.22;;;4.00;99.90;;;;;;6160351;23;20315;-76
2023/03/16 03:57:55;;;;;;;6.28;3.72;;;4.00;99.90;;;;;;6160959;23;20021;-76
2023/03/16 04:00:21;;;;;;;8.90;3.80;;;5.20;99.90;;;;;;6135432;23;20009;-76
2023/03/16 04:02:47;;;;;;;5.72;2.83;;;4.00;99.90;;;;;;6160215;23;20069;-76
2023/03/16 04:05:13;;;;;;;4.93;3.40;;;5.40;99.90;;;;;;6135895;23;20017;-76
2023/03/16 04:07:40;;;;;;;5.43;3.15;;;4.00;99.90;;;;;;6161138;23;20173;-78
2023/03/16 04:10:07;;;;;;;5.25;2.88;;;4.20;99.90;;;;;;6159718;23;20059;-77
2023/03/16 04:12:32;;;;;;;5.30;3.05;;;4.00;99.90;;;;;;6111502;23;20096;-76
2023/03/16 04:15:05;;;;;;;7.97;3.25;;;4.50;99.90;;;;;;6134576;23;20032;-79
2023/03/16 04:17:35;;;;;;;7.40;3.70;;;4.00;99.90;;;;;;6134032;23;20072;-76
2023/03/16 04:20:04;;;;;;;8.20;3.70;;;4.00;99.90;;;;;;6134509;23;20608;-78
2023/03/16 04:22:30;;;;;;;4.90;3.25;;;4.00;99.90;;;;;;6159181;23;20025;-77
2023/03/16 04:24:58;;;;;;;8.40;3.55;;;4.00;99.90;;;;;;6134136;23;20013;-75
2023/03/16 04:27:25;;;;;;;5.25;3.38;;;4.60;99.90;;;;;;6160052;23;20044;-76
2023/03/16 04:29:54;;;;;;;6.40;3.67;;;4.00;99.90;;;;;;6135151;23;20220;-77
2023/03/16 04:32:29;;;;;;;5.07;3.70;;;4.00;99.90;;;;;;6158219;23;20028;-76
2023/03/16 04:34:55;;;;;;;6.93;4.22;;;4.20;99.90;;;;;;6135415;23;20013;-76
2023/03/16 04:37:21;;;;;;;5.32;2.83;;;4.00;99.90;;;;;;6185416;23;20021;-78
2023/03/16 04:40:15;;;;;;;4.80;3.35;;;4.00;99.90;;;;;;6137249;23;20016;-77
2023/03/16 04:42:41;;;;;;;7.18;4.90;;;4.00;99.90;;;;;;6136884;23;20018;-78
2023/03/16 04:45:07;;;;;;;5.50;2.75;;;4.00;99.90;;;;;;6137492;23;20231;-78
2023/03/16 04:47:33;;;;;;;6.90;3.55;;;3.90;99.90;;;;;;6161813;23;20049;-77
2023/03/16 04:50:01;;;;;;;7.97;3.35;;;3.90;99.90;;;;;;6137611;23;20013;-76
2023/03/16 04:52:27;;;;;;;6.60;4.07;;;3.90;99.90;;;;;;6161842;23;20216;-76
2023/03/16 04:54:53;;;;;;;6.90;4.18;;;3.90;99.90;;;;;;6137483;23;20072;-75
2023/03/16 04:57:19;;;;;;;6.25;3.35;;;3.90;99.90;;;;;;6161470;23;20028;-77
2023/03/16 04:59:44;;;;;;;7.72;3.92;;;3.90;99.90;;;;;;6136304;23;20013;-76
2023/03/16 05:02:10;;;;;;;5.55;3.60;;;3.90;99.90;;;;;;6160737;23;20032;-75
2023/03/16 05:04:38;;;;;;;5.80;3.25;;;3.90;99.90;;;;;;6137175;23;20009;-76
2023/03/16 05:07:04;;;;;;;7.53;2.85;;;3.90;99.90;;;;;;6161424;23;20021;-77
2023/03/16 05:09:30;;;;;;;5.80;3.85;;;3.90;99.90;;;;;;6136456;23;20014;-79
2023/03/16 05:11:56;;;;;;;7.45;4.15;;;3.90;99.90;;;;;;6161474;23;20021;-79
2023/03/16 05:14:22;;;;;;;5.32;3.10;;;3.90;99.90;;;;;;6161661;23;20013;-77
2023/03/16 05:16:51;;;;;;;5.90;3.45;;;4.10;99.90;;;;;;6161614;23;20501;-76
2023/03/16 05:19:17;;;;;;;6.57;3.47;;;3.90;99.90;;;;;;6134703;23;20331;-79
2023/03/16 05:21:44;;;;;;;4.93;4.05;;;3.90;99.90;;;;;;6111181;23;20037;-77
2023/03/16 05:24:13;;;;;;;4.60;3.65;;;3.90;99.90;;;;;;6159508;23;20024;-78
2023/03/16 05:26:39;;;;;;;7.88;3.95;;;4.00;99.90;;;;;;6135773;23;20041;-78
2023/03/16 05:29:08;;;;;;;6.35;3.28;;;4.00;99.90;;;;;;6134799;23;20017;-78
2023/03/16 05:31:35;;;;;;;5.65;3.45;;;4.00;99.90;;;;;;6159898;23;20045;-78
2023/03/16 05:34:01;;;;;;;5.32;3.45;;;4.00;99.90;;;;;;6135610;23;20021;-76
2023/03/16 05:36:27;;;;;;;7.90;4.20;;;4.40;99.90;;;;;;6111075;23;20268;-77
2023/03/16 05:38:52;;;;;;;4.85;3.67;;;4.10;99.90;;;;;;6111152;23;20060;-79
2023/03/16 05:41:20;;;;;;;8.93;4.10;;;4.10;99.90;;;;;;6183802;23;20068;-74
2023/03/16 05:43:46;;;;;;;11.10;4.22;;;4.70;99.90;;;;;;6184871;23;20575;-75
2023/03/16 05:46:12;;;;;;;6.82;4.20;;;4.10;99.90;;;;;;6160002;23;20009;-76
2023/03/16 05:48:38;;;;;;;5.97;3.45;;;4.10;99.90;;;;;;6111193;23;20304;-80
2023/03/16 05:51:04;;;;;;;7.47;3.75;;;4.10;99.90;;;;;;6159166;23;20009;-79
2023/03/16 05:53:34;;;;;;;4.80;3.65;;;4.20;99.90;;;;;;6158721;23;20047;-77
2023/03/16 05:56:00;;;;;;;5.13;3.47;;;4.20;99.90;;;;;;6159742;23;20010;-78
2023/03/16 05:58:27;;;;;;;6.95;4.22;;;4.50;99.90;;;;;;6159150;23;20434;-75
2023/03/16 06:00:54;;;;;;;6.93;3.67;;;4.20;99.90;;;;;;6135371;23;20185;-80
2023/03/16 06:03:21;;;;;;;4.15;2.88;;;4.20;99.90;;;;;;6135036;23;20013;-75
2023/03/16 06:05:47;;;;;;;6.82;4.35;;;4.20;99.90;;;;;;6136137;23;20109;-79
2023/03/16 06:08:14;;;;;;;8.98;4.53;;;4.50;99.90;;;;;;6135429;23;20068;-78
2023/03/16 06:10:40;;;;;;;6.30;3.35;;;4.20;99.90;;;;;;6160672;23;20021;-80
2023/03/16 06:13:06;;;;;;;5.60;3.65;;;4.20;99.90;;;;;;6159781;23;20021;-78
2023/03/16 06:15:31;;;;;;;6.35;3.72;;;4.20;99.90;;;;;;6109622;23;20040;-79
2023/03/16 06:17:57;;;;;;;6.18;3.80;;;4.20;99.90;;;;;;6135630;23;20220;-77
2023/03/16 06:20:23;;;;;;;6.20;4.00;;;4.20;99.90;;;;;;6135591;23;20065;-78
2023/03/16 06:22:49;;;;;;;4.72;3.10;;;4.20;99.90;;;;;;6159498;23;20044;-78
2023/03/16 06:25:15;;;;;;;7.60;4.80;;;4.20;99.90;;;;;;6159925;23;20079;-76
2023/03/16 06:27:42;;;;;;;8.60;4.55;;;4.20;99.90;;;;;;6160950;23;20025;-78
2023/03/16 06:30:10;;;;;;;7.85;4.22;;;4.20;99.90;;;;;;6160195;23;20093;-76
2023/03/16 06:32:37;;;;;;;7.72;4.25;;;4.30;99.90;;;;;;6135473;23;20021;-77
2023/03/16 06:35:04;;;;;;;8.95;5.03;;;4.30;99.90;;;;;;6109473;23;20181;-76
2023/03/16 06:37:30;;;;;;;6.18;3.63;;;4.30;99.90;;;;;;6159466;23;20025;-77
2023/03/16 06:39:56;;;;;;;6.20;3.58;;;4.30;99.90;;;;;;6135665;23;20033;-77
2023/03/16 06:42:24;;;;;;;7.00;3.75;;;4.30;99.90;;;;;;6135691;23;20041;-77
2023/03/16 06:44:51;;;;;;;6.38;4.32;;;4.40;99.90;;;;;;6135427;23;20037;-77
2023/03/16 06:47:17;;;;;;;7.43;4.55;;;4.40;99.90;;;;;;6159943;23;20064;-77
2023/03/16 06:49:43;;;;;;;8.55;3.80;;;4.40;99.90;;;;;;6158836;23;20021;-74
2023/03/16 06:52:12;;;;;;;5.82;4.07;;;4.30;99.90;;;;;;6135984;23;20373;-75
2023/03/16 06:54:39;;;;;;;7.30;4.72;;;4.40;99.90;;;;;;6135876;23;20025;-77
2023/03/16 06:57:05;;;;;;;5.00;2.70;;;4.30;99.90;;;;;;6159874;23;20028;-77
2023/03/16 06:59:31;;;;;;;5.60;3.30;;;4.40;99.90;;;;;;6159867;23;20057;-77
2023/03/16 07:01:57;;;;;;;4.78;3.85;;;4.40;99.90;;;;;;6159738;23;20017;-78
2023/03/16 07:04:26;;;;;;;6.88;4.22;;;4.50;99.90;;;;;;6159545;23;20228;-75
2023/03/16 07:06:52;;;;;;;7.97;3.88;;;4.50;99.90;;;;;;6160671;23;20208;-78
2023/03/16 07:09:18;;;;;;;6.30;4.00;;;4.60;99.90;;;;;;6135235;23;20020;-76
2023/03/16 07:11:43;;;;;;;5.93;3.58;;;4.60;99.90;;;;;;6157934;23;20021;-79
2023/03/16 07:14:10;;;;;;;7.07;3.78;;;4.60;99.90;;;;;;6160087;23;20013;-74
2023/03/16 07:16:36;;;;;;;7.05;4.03;;;4.60;99.90;;;;;;6159052;23;20010;-74
2023/03/16 07:19:02;;;;;;;7.05;3.90;;;4.70;99.90;;;;;;6136108;23;20064;-78
2023/03/16 07:21:37;;;;;;;6.05;3.72;;;4.70;99.90;;;;;;6159623;23;20032;-74
2023/03/16 07:24:04;;;;;;;6.05;3.78;;;4.80;99.90;;;;;;6158316;23;20013;-74
2023/03/16 07:26:31;;;;;;;4.60;3.63;;;4.70;99.90;;;;;;6184141;23;20064;-75
2023/03/16 07:28:57;;;;;;;7.97;3.63;;;4.80;99.90;;;;;;6135332;23;20338;-75
2023/03/16 07:31:26;;;;;;;6.28;3.92;;;4.80;99.90;;;;;;6184079;23;20292;-74
2023/03/16 07:33:57;;;;;;;5.68;3.58;;;4.80;99.90;;;;;;6135686;23;20017;-75
2023/03/16 07:36:22;;;;;;;7.93;3.78;;;4.80;99.90;;;;;;6183809;23;20014;-73
2023/03/16 07:38:48;;;;;;;5.30;3.53;;;4.80;99.90;;;;;;6160132;23;20292;-73
2023/03/16 07:41:17;;;;;;;6.35;3.88;;;4.80;99.90;;;;;;6135214;23;20016;-74
2023/03/16 07:43:46;;;;;;;4.00;2.75;;;4.90;99.90;;;;;;6135518;23;20326;-75
2023/03/16 07:46:12;;;;;;;4.85;3.17;;;4.90;99.90;;;;;;6159461;23;20006;-76
2023/03/16 07:48:43;;;;;;;7.55;4.32;;;5.00;99.90;;;;;;6158364;23;20017;-75
2023/03/16 07:51:16;;;;;;;5.85;3.97;;;4.90;99.90;;;;;;6135243;23;20184;-75
2023/03/16 07:53:41;;;;;;;5.57;3.90;;;4.90;99.90;;;;;;6134596;23;20009;-75
2023/03/16 07:56:08;;;;;;;4.53;3.03;;;5.10;99.90;;;;;;6134996;23;20102;-75
2023/03/16 07:58:33;;;;;;;4.38;3.40;;;5.00;99.90;;;;;;6136215;23;20013;-74
2023/03/16 08:01:00;;;;;;;6.43;3.35;;;5.00;99.90;;;;;;6137425;23;20069;-76
2023/03/16 08:03:27;;;;;;;6.80;4.10;;;5.00;99.90;;;;;;6135632;23;20068;-76
2023/03/16 08:05:56;;;;;;;4.72;3.20;;;5.00;99.90;;;;;;6111846;23;20068;-74
2023/03/16 08:08:22;;;;;;;6.90;4.15;;;5.00;99.90;;;;;;6111672;23;20354;-74
2023/03/16 08:10:51;;;;;;;5.80;3.88;;;5.20;99.90;;;;;;6113229;23;20017;-75
2023/03/16 08:13:21;;;;;;;5.82;4.53;;;5.20;99.90;;;;;;6136602;23;20225;-75
2023/03/16 08:16:00;;;;;;;6.32;4.60;;;5.10;99.90;;;;;;6113081;23;20165;-75
2023/03/16 08:18:30;;;;;;;5.78;4.03;;;5.10;99.90;;;;;;6136752;23;20010;-76
2023/03/16 08:20:57;;;;;;;6.75;4.32;;;5.20;99.90;;;;;;6137756;23;20284;-75
2023/03/16 08:23:24;;;;;;;6.22;3.30;;;5.20;99.90;;;;;;6135032;23;20294;-76
2023/03/16 08:25:55;;;;;;;5.45;4.00;;;5.30;99.90;;;;;;6159108;23;20026;-77
2023/03/16 08:28:30;;;;;;;5.07;3.97;;;5.30;99.90;;;;;;6112898;23;20211;-76
2023/03/16 08:31:36;;;;;;;7.57;4.85;;;5.40;99.90;;;;;;6186880;23;20040;-77
2023/03/16 08:34:03;;;;;;;5.20;3.53;;;5.20;99.90;;;;;;6159475;23;20021;-76
2023/03/16 08:36:29;;;;;;;10.57;5.18;;;5.20;99.90;;;;;;6136665;23;20013;-76
2023/03/16 08:38:55;;;;;;;7.82;4.15;;;5.30;99.90;;;;;;6137228;23;20017;-77
2023/03/16 08:41:21;;;;;;;6.65;3.53;;;5.10;99.90;;;;;;6136976;23;20063;-75
2023/03/16 08:44:46;;;;;;;5.25;3.40;;;5.20;99.90;;;;;;6136461;23;20337;-75
2023/03/16 08:47:38;;;;;;;4.32;3.47;;;5.20;99.90;;;;;;6089024;23;20025;-76
2023/03/16 08:50:05;;;;;;;7.38;3.97;;;5.20;99.90;;;;;;6136491;23;20017;-75
2023/03/16 08:52:32;;;;;;;5.70;4.10;;;5.00;99.90;;;;;;6159204;23;20020;-74
2023/03/16 08:54:58;;;;;;;10.55;4.68;;;5.00;99.90;;;;;;6158656;23;20017;-76
2023/03/16 08:57:25;;;;;;;7.53;4.85;;;5.40;99.90;;;;;;6108471;23;20120;-77
2023/03/16 08:59:53;;;;;;;8.23;4.13;;;5.10;99.90;;;;;;6158611;23;20227;-73
2023/03/16 09:02:19;;;;;;;7.85;3.65;;;5.00;99.90;;;;;;6133803;23;20009;-74
2023/03/16 09:04:45;;;;;;;6.28;4.53;;;5.30;99.90;;;;;;6159230;23;20080;-74
2023/03/16 09:07:12;;;;;;;9.68;4.50;;;5.30;99.90;;;;;;6157811;23;20021;-76
2023/03/16 09:09:38;;;;;;;5.85;4.20;;;5.20;99.90;;;;;;6158381;23;20036;-77
2023/03/16 09:12:05;;;;;;;5.75;3.95;;;5.40;99.90;;;;;;6158918;23;20013;-76
2023/03/16 09:14:30;;;;;;;5.30;3.70;;;5.30;99.90;;;;;;6109414;23;20013;-73
2023/03/16 09:16:57;;;;;;;8.15;4.40;;;5.30;99.90;;;;;;6133312;23;20207;-74
2023/03/16 09:19:23;;;;;;;5.93;3.45;;;5.30;99.90;;;;;;6157506;23;20067;-77
2023/03/16 09:21:50;;;;;;;5.25;4.05;;;5.40;99.90;;;;;;6134707;23;20061;-77
2023/03/16 09:24:16;;;;;;;7.78;4.38;;;5.40;99.90;;;;;;6111518;23;20014;-77
2023/03/16 09:26:42;;;;;;;8.57;4.85;;;5.20;99.90;;;;;;6159402;23;20036;-74
2023/03/16 09:29:08;;;;;;;11.05;5.28;;;5.20;99.90;;;;;;6184110;23;20021;-75
2023/03/16 09:31:35;;;;;;;7.53;4.72;;;5.10;99.90;;;;;;6131656;23;20028;-74
2023/03/16 09:34:00;;;;;;;6.55;4.20;;;5.20;99.90;;;;;;6158123;23;20021;-75
2023/03/16 09:36:27;;;;;;;7.63;4.57;;;5.40;99.90;;;;;;6183383;23;20019;-75
2023/03/16 09:38:55;;;;;;;8.75;5.43;;;5.20;99.90;;;;;;6158896;23;20017;-75
2023/03/16 09:41:33;;;;;;;6.18;3.60;;;5.20;99.90;;;;;;6135187;23;20029;-77
2023/03/16 09:44:25;;;;;;;9.20;4.90;;;5.50;99.90;;;;;;6159480;23;20045;-76
2023/03/16 09:46:52;;;;;;;7.82;5.40;;;5.30;99.90;;;;;;6132829;23;20555;-76
2023/03/16 09:49:35;;;;;;;7.15;4.78;;;5.30;99.90;;;;;;6179766;23;20042;-75
2023/03/16 09:52:26;;;;;;;6.00;4.50;;;5.30;99.90;;;;;;6108183;23;20205;-76
2023/03/16 09:55:17;;;;;;;9.07;5.53;;;5.70;99.90;;;;;;6158460;23;20044;-76
2023/03/16 09:57:44;;;;;;;6.95;4.95;;;5.90;99.90;;;;;;6156990;23;20250;-76
2023/03/16 10:00:16;;;;;;;6.85;4.35;;;6.10;99.90;;;;;;6158885;23;20189;-75
2023/03/16 10:03:16;;;;;;;10.05;5.30;;;6.10;99.90;;;;;;6132453;23;20016;-75
2023/03/16 10:05:42;;;;;;;6.50;4.00;;;6.10;99.90;;;;;;6132640;23;20018;-76
2023/03/16 10:08:25;;;;;;;7.50;4.80;;;6.30;99.90;;;;;;6106863;23;20028;-74
2023/03/16 10:11:21;;;;;;;8.00;4.90;;;6.10;99.90;;;;;;6108768;23;20013;-76
2023/03/16 10:14:03;;;;;;;6.43;4.30;;;6.00;99.90;;;;;;6132895;23;20021;-76
2023/03/16 10:16:45;;;;;;;8.00;4.85;;;6.00;99.90;;;;;;6158100;23;20028;-76
2023/03/16 10:19:27;;;;;;;7.85;5.25;;;6.00;99.90;;;;;;6156304;23;20111;-76
2023/03/16 10:21:59;;;;;;;7.40;5.00;;;6.30;99.90;;;;;;6157625;23;20018;-75
2023/03/16 10:24:41;;;;;;;6.75;4.05;;;6.40;99.90;;;;;;6104000;23;20021;-76
2023/03/16 10:27:44;;;;;;;6.55;4.97;;;6.00;99.90;;;;;;6132784;23;20041;-76
2023/03/16 10:30:27;;;;;;;8.60;5.47;;;5.90;99.90;;;;;;6105862;23;20512;-76
2023/03/16 10:32:53;;;;;;;7.28;4.82;;;6.40;99.90;;;;;;6107644;23;20495;-77
2023/03/16 10:35:28;;;;;;;7.57;5.10;;;6.10;99.90;;;;;;6130186;23;20021;-76
2023/03/16 10:37:55;;;;;;;9.65;6.32;;;6.30;99.90;;;;;;6154686;23;20017;-75
2023/03/16 10:40:22;;;;;;;9.07;5.53;;;6.20;99.90;;;;;;6133172;23;20211;-76
2023/03/16 10:42:48;;;;;;;7.28;4.45;;;6.20;99.90;;;;;;6156099;23;20017;-77
2023/03/16 10:45:37;;;;;;;8.60;4.75;;;6.40;99.90;;;;;;6133812;23;20010;-77
2023/03/16 10:48:07;;;;;;;7.75;4.10;;;6.00;99.90;;;;;;6132942;23;20021;-76
2023/03/16 10:50:34;;;;;;;6.05;3.95;;;6.20;99.90;;;;;;6131746;23;20029;-77
2023/03/16 10:53:40;;;;;;;8.00;5.40;;;6.40;99.90;;;;;;6157778;23;20068;-76
2023/03/16 10:56:31;;;;;;;8.43;4.60;;;6.50;99.90;;;;;;6158246;23;20316;-77
2023/03/16 10:58:57;;;;;;;8.55;4.93;;;6.50;99.90;;;;;;6159011;23;20013;-77
2023/03/16 11:01:27;;;;;;;6.32;4.45;;;6.20;99.90;;;;;;6133878;23;20012;-77
2023/03/16 11:03:55;;;;;;;9.93;4.40;;;6.60;99.90;;;;;;6108926;23;20069;-77
2023/03/16 11:06:30;;;;;;;6.95;4.90;;;6.10;99.90;;;;;;6158390;23;20328;-76
2023/03/16 11:12:29;;;;;;;11.00;4.95;;;6.70;99.90;;;;;;6138533;23;20041;-76
2023/03/16 11:15:11;;;;;;;8.25;5.55;;;6.40;99.90;;;;;;6110653;23;20076;-75
2023/03/16 11:17:43;;;;;;;5.70;3.90;;;6.70;99.90;;;;;;6157911;23;20013;-76
2023/03/16 11:27:30;;;;;;;10.95;6.15;;;5.70;99.90;;;;;;6068050;23;20075;-75
2023/03/16 11:30:08;;;;;;;10.13;5.45;;;6.10;99.90;;;;;;6107222;23;20072;-76
2023/03/16 11:32:37;;;;;;;8.98;4.88;;;6.20;99.90;;;;;;6157567;23;20021;-76
2023/03/16 11:35:27;;;;;;;7.70;5.18;;;6.70;99.90;;;;;;6134157;23;20041;-75
2023/03/16 11:38:30;;;;;;;7.40;4.93;;;6.80;99.90;;;;;;6184042;23;20028;-77
2023/03/16 11:41:04;;;;;;;6.45;4.25;;;5.40;99.90;;;;;;6135967;23;20240;-77
2023/03/16 11:44:02;;;;;;;6.57;4.33;;;6.70;99.90;;;;;;6136720;23;20030;-77
2023/03/16 11:46:55;;;;;;;8.80;5.00;;;7.10;99.90;;;;;;6110658;23;20249;-77
2023/03/16 11:49:33;;;;;;;6.82;4.55;;;6.60;99.90;;;;;;6137088;23;20024;-77
2023/03/16 11:52:02;;;;;;;5.93;3.42;;;7.10;99.90;;;;;;6135036;23;20158;-76
2023/03/16 11:54:35;;;;;;;6.07;4.22;;;7.00;99.90;;;;;;6135767;23;20018;-77
2023/03/16 11:57:31;;;;;;;4.88;3.80;;;7.00;99.90;;;;;;6186328;23;20068;-76
2023/03/16 12:00:15;;;;;;;4.75;3.17;;;7.10;99.90;;;;;;6137315;23;20052;-74
2023/03/16 12:03:01;;;;;;;6.05;3.95;;;6.80;99.90;;;;;;6136305;23;20028;-77
2023/03/16 12:05:37;;;;;;;4.72;3.17;;;7.10;99.90;;;;;;6161430;23;20001;-78
2023/03/16 12:08:05;;;;;;;9.57;4.38;;;6.90;99.90;;;;;;6158386;23;20028;-76
2023/03/16 12:10:50;;;;;;;6.25;3.67;;;7.30;99.90;;;;;;6135926;23;20075;-75
2023/03/16 12:13:35;;;;;;;;;;;6.90;99.90;;;;;;6136752;23;20020;-76
2023/03/16 12:16:18;;;;;;;4.57;3.47;;;7.40;99.90;;;;;;6136077;23;19908;-75
2023/03/16 12:18:53;;;;;;;6.13;4.35;;;7.40;99.90;;;;;;6184701;23;20044;-75
2023/03/16 12:21:43;;;;;;;5.70;4.03;;;7.50;99.90;;;;;;6135820;23;20017;-75
2023/03/16 12:24:25;;;;;;;8.18;3.95;;;7.70;99.90;;;;;;6108183;23;20442;-80
2023/03/16 12:26:52;;;;;;;9.10;3.90;;;7.20;99.90;;;;;;6160171;23;20029;-75
2023/03/16 12:29:27;;;;;;;5.97;4.60;;;7.50;99.90;;;;;;6134922;23;20072;-75
2023/03/16 12:32:02;;;;;;;6.13;3.35;;;7.50;99.90;;;;;;6135053;23;20037;-75
2023/03/16 12:34:30;;;;;;;;;;;7.50;99.90;;;;;;6160894;23;20463;-75
2023/03/16 12:37:20;;;;;;;6.82;4.22;;;7.60;99.90;;;;;;6160034;23;20250;-74
2023/03/16 12:39:52;;;;;;;5.75;3.42;;;7.80;99.90;;;;;;6158350;23;20027;-75
2023/03/16 12:42:49;;;;;;;7.30;4.35;;;7.70;99.90;;;;;;6135847;23;20032;-75
2023/03/16 12:45:45;;;;;;;7.55;4.05;;;7.80;99.90;;;;;;6135332;23;20264;-75
2023/03/16 12:48:40;;;;;;;;;;;7.70;99.90;;;;;;6159883;23;20020;-76
2023/03/16 12:51:06;;;;;;;4.72;2.80;;;8.20;99.90;;;;;;6116446;23;19908;-76
2023/03/16 12:53:44;;;;;;;7.15;4.13;;;8.10;99.90;;;;;;6133248;23;20076;-76
2023/03/16 12:56:15;;;;;;;6.32;3.60;;;8.20;99.90;;;;;;6134422;23;20139;-75
2023/03/16 12:59:17;;;;;;;7.35;3.28;;;8.20;99.90;;;;;;6132676;23;20060;-75
2023/03/16 13:02:21;;;;;;;5.20;3.40;;;8.40;99.90;;;;;;6079869;23;20069;-74
2023/03/16 13:04:58;;;;;;;5.47;3.50;;;8.30;99.90;;;;;;6103329;23;20355;-74
2023/03/16 13:07:29;;;;;;;4.93;3.10;;;8.10;99.90;;;;;;6107120;23;20017;-73
2023/03/16 13:10:11;;;;;;;6.50;3.78;;;8.10;99.90;;;;;;6130256;23;20009;-73
2023/03/16 13:12:40;;;;;;;6.93;3.50;;;8.10;99.90;;;;;;6179664;23;20138;-74
2023/03/16 13:15:31;;;;;;;6.30;3.63;;;8.30;99.90;;;;;;6129135;23;20060;-74
2023/03/16 13:18:07;;;;;;;4.95;2.80;;;8.40;99.90;;;;;;6130233;23;20021;-74
2023/03/16 13:20:50;;;;;;;6.55;4.18;;;8.20;99.90;;;;;;6131003;23;20375;-75
2023/03/16 13:23:16;;;;;;;4.63;3.30;;;8.40;99.90;;;;;;6107758;23;20173;-74
2023/03/16 13:26:03;;;;;;;5.57;3.97;;;8.50;99.90;;;;;;6157447;23;20019;-74
2023/03/16 13:28:31;;;;;;;5.60;3.72;;;8.40;99.90;;;;;;6107223;23;20025;-74